KGNR

Greenville Airport

Maine, USA
METAR KGNR 260256Z AUTO 14010KT M03/M03 A2995 RMK AO1 SLP166 P0001 60003 T10281028 58009
Observed Flight Rules
Feb-26 @ 02:56 UTC (20 minutes ago)
Wind
140° at 10 knots
Temperatures Readings Precipitation
Current -3°C / 27°F
Dewpoint -3°C / 27°F
Humidity 100%
Altimeter 29.95" Hg
Pressure 1016.6 hPa
Elevation 427
Current Rain 0.01
METAR KGNR 260256Z AUTO 14010KT M03/M03 A2995 RMK AO1 SLP166 P0001 60003 T10281028 58009
Observed Flight Rules
Feb-26 @ 02:56 UTC
(20 minutes ago)
Wind
140° at 10 knots
Temperature Dewpoint
-3°C / 27°F -3°C / 27°F
Humidity Altimeter Pressure
100% 29.95" Hg 1016.6 hPa
Current Rain
0.01